ARG1612 SABE-SAZM
Flight info
| Callsign | ARG1612 |
|---|---|
| Flight time | N/A |
| Altitude | 35000 |
| Route | PTA8 GBE UW29 VOTRA VOTRA2U |
| Aircraft | E190/M-SDE3GILORVW/S |
Departure
| Time | 2026-05-04 21:53 |
|---|---|
| Airport | Aeroparque Jorge Newbery (SABE) |
Arrival
| Time | N/A |
|---|---|
| Airport | Ástor Piazzola International Airport (SAZM) |
| Time | Latitude | Longitude | Altitude | Speed | Heading |
|---|---|---|---|---|---|
| 2026-05-04 20:55 | -34.55819 | -58.41212 | 188 ft | 0 kts | 39° |
| 2026-05-04 21:01 | -34.55818 | -58.41211 | 24 ft | 8 kts | 39° |
| 2026-05-04 21:02 | -34.55819 | -58.41212 | -140 ft | 0 kts | 38° |
| 2026-05-04 21:38 | -34.55820 | -58.41213 | 25 ft | 2 kts | 39° |
| 2026-05-04 21:38 | -34.55841 | -58.41232 | 24 ft | 4 kts | 21° |
| 2026-05-04 21:38 | -34.55860 | -58.41234 | 26 ft | 3 kts | 308° |
| 2026-05-04 21:39 | -34.55876 | -58.41210 | 28 ft | 4 kts | 310° |
| 2026-05-04 21:39 | -34.55882 | -58.41201 | 26 ft | 0 kts | 310° |
| 2026-05-04 21:39 | -34.55882 | -58.41202 | 26 ft | 0 kts | 310° |
| 2026-05-04 21:39 | -34.55819 | -58.41211 | 24 ft | 0 kts | 39° |
| 2026-05-04 21:44 | -34.55836 | -58.41228 | 24 ft | 4 kts | 30° |
| 2026-05-04 21:44 | -34.55856 | -58.41237 | 27 ft | 4 kts | 323° |
| 2026-05-04 21:44 | -34.55871 | -58.41217 | 27 ft | 4 kts | 309° |
| 2026-05-04 21:45 | -34.55882 | -58.41201 | 26 ft | 0 kts | 310° |
| 2026-05-04 21:47 | -34.55882 | -58.41202 | 26 ft | 0 kts | 310° |
| 2026-05-04 21:48 | -34.55878 | -58.41207 | 27 ft | 2 kts | 310° |
| 2026-05-04 21:48 | -34.55866 | -58.41224 | 26 ft | 4 kts | 307° |
| 2026-05-04 21:48 | -34.55858 | -58.41260 | 28 ft | 5 kts | 268° |
| 2026-05-04 21:48 | -34.55883 | -58.41293 | 25 ft | 6 kts | 211° |
| 2026-05-04 21:49 | -34.55905 | -58.41339 | 24 ft | 7 kts | 271° |
| 2026-05-04 21:49 | -34.55883 | -58.41400 | 25 ft | 9 kts | 297° |
| 2026-05-04 21:49 | -34.55852 | -58.41472 | 24 ft | 11 kts | 297° |
| 2026-05-04 21:49 | -34.55816 | -58.41557 | 26 ft | 12 kts | 296° |
| 2026-05-04 21:50 | -34.55778 | -58.41650 | 24 ft | 13 kts | 296° |
| 2026-05-04 21:50 | -34.55736 | -58.41751 | 24 ft | 14 kts | 297° |
| 2026-05-04 21:50 | -34.55682 | -58.41854 | 25 ft | 15 kts | 304° |
| 2026-05-04 21:50 | -34.55620 | -58.41964 | 25 ft | 16 kts | 304° |
| 2026-05-04 21:51 | -34.55558 | -58.42071 | 24 ft | 16 kts | 307° |
| 2026-05-04 21:51 | -34.55489 | -58.42182 | 24 ft | 17 kts | 307° |
| 2026-05-04 21:51 | -34.55416 | -58.42300 | 24 ft | 18 kts | 307° |
| 2026-05-04 21:51 | -34.55364 | -58.42421 | 24 ft | 16 kts | 282° |
| 2026-05-04 21:52 | -34.55406 | -58.42506 | 25 ft | 6 kts | 168° |
| 2026-05-04 21:52 | -34.55416 | -58.42490 | 26 ft | 0 kts | 124° |
| 2026-05-04 21:52 | -34.55429 | -58.42468 | 25 ft | 20 kts | 124° |
| 2026-05-04 21:52 | -34.55672 | -58.42036 | 27 ft | 103 kts | 124° |
| 2026-05-04 21:53 | -34.56203 | -58.41058 | 118 ft | 164 kts | 123° |
| 2026-05-04 21:53 | -34.56896 | -58.39832 | 818 ft | 188 kts | 122° |
| 2026-05-04 21:53 | -34.57690 | -58.38392 | 1461 ft | 225 kts | 120° |
| 2026-05-04 21:53 | -34.58216 | -58.36463 | 1958 ft | 263 kts | 93° |
| 2026-05-04 21:54 | -34.57963 | -58.34042 | 1450 ft | 327 kts | 70° |
| 2026-05-04 21:54 | -34.57151 | -58.31439 | 2488 ft | 326 kts | 68° |
| 2026-05-04 21:54 | -34.56497 | -58.28748 | 3306 ft | 337 kts | 73° |
| 2026-05-04 21:54 | -34.56087 | -58.26251 | 4106 ft | 268 kts | 79° |
| 2026-05-04 21:55 | -34.55985 | -58.24239 | 4739 ft | 218 kts | 90° |
| 2026-05-04 21:55 | -34.56132 | -58.22429 | 4268 ft | 224 kts | 95° |
| 2026-05-04 21:55 | -34.56366 | -58.20623 | 4273 ft | 206 kts | 100° |
| 2026-05-04 21:55 | -34.56786 | -58.18935 | 3789 ft | 220 kts | 112° |
| 2026-05-04 21:56 | -34.57601 | -58.17263 | 3153 ft | 240 kts | 131° |
| 2026-05-04 21:56 | -34.58875 | -58.15866 | 2339 ft | 261 kts | 143° |
| 2026-05-04 21:56 | -34.60370 | -58.14660 | 1267 ft | 343 kts | 148° |